Time;durP1;ratioP1;P1;durP2;ratioP2;P2;SDS_P1;SDS_P2;PMS_P1;PMS_P2;Temp;Humidity;BMP_temperature;BMP_pressure;BME280_temperature;BME280_humidity;BME280_pressure;Samples;Min_cycle;Max_cycle;Signal;HPM_P1;HPM_P2
2022/01/03 00:09:02;;;;;;;11.63;1.33;;;11.20;99.90;;;;;;6735889;88;20287;-76
2022/01/03 00:19:02;;;;;;;13.30;1.40;;;11.20;99.90;;;;;;6736528;88;20195;-77
2022/01/03 00:29:16;;;;;;;8.75;1.33;;;11.00;99.90;;;;;;6736124;88;20212;-77
2022/01/03 00:39:17;;;;;;;7.90;1.00;;;10.90;99.90;;;;;;6738579;88;20172;-77
2022/01/03 00:49:17;;;;;;;9.80;1.00;;;10.60;99.90;;;;;;6738494;88;20218;-78
2022/01/03 00:59:32;;;;;;;12.52;1.42;;;10.70;99.90;;;;;;6739867;88;21091;-76
2022/01/03 01:09:34;;;;;;;5.68;1.30;;;10.60;99.90;;;;;;6738342;88;20203;-76
2022/01/03 01:19:36;;;;;;;8.40;1.30;;;10.60;99.90;;;;;;6743697;77;20197;-75
2022/01/03 01:29:38;;;;;;;9.57;1.40;;;10.40;99.90;;;;;;6742184;88;20275;-75
2022/01/03 01:39:42;;;;;;;9.48;1.30;;;10.40;99.90;;;;;;6741622;88;20278;-75
2022/01/03 01:49:47;;;;;;;8.55;1.30;;;10.40;99.90;;;;;;6741249;88;20210;-75
2022/01/03 02:00:10;;;;;;;7.57;1.02;;;10.40;99.90;;;;;;6740755;88;20180;-75
2022/01/03 02:10:15;;;;;;;4.68;0.80;;;10.30;99.90;;;;;;6741225;88;20247;-74
2022/01/03 02:20:26;;;;;;;6.10;0.90;;;10.30;99.90;;;;;;6755137;88;20210;-75
2022/01/03 02:30:28;;;;;;;3.83;0.60;;;10.20;99.90;;;;;;6738238;88;20180;-75
2022/01/03 02:40:29;;;;;;;8.45;0.90;;;10.10;99.90;;;;;;6743602;88;20346;-75
2022/01/03 02:50:32;;;;;;;5.00;0.80;;;10.00;99.90;;;;;;6748362;88;20282;-74
2022/01/03 03:00:45;;;;;;;6.50;1.00;;;9.80;99.90;;;;;;6739518;88;20253;-75
2022/01/03 03:10:45;;;;;;;5.45;1.17;;;10.00;99.90;;;;;;6743442;88;20292;-76
2022/01/03 03:20:46;;;;;;;8.40;1.30;;;10.00;99.90;;;;;;6742908;88;20189;-75
2022/01/03 03:30:48;;;;;;;8.88;1.02;;;9.80;99.90;;;;;;6735158;88;20369;-75
2022/01/03 03:40:49;;;;;;;4.50;0.80;;;9.70;99.90;;;;;;6741468;88;20233;-74
2022/01/03 03:50:50;;;;;;;5.15;0.95;;;9.90;99.90;;;;;;6739617;88;21626;-75
2022/01/03 04:00:50;;;;;;;4.75;1.00;;;9.90;99.90;;;;;;6750646;88;20259;-75
2022/01/03 04:10:51;;;;;;;5.45;0.98;;;9.70;99.90;;;;;;6738369;88;20202;-77
2022/01/03 04:20:51;;;;;;;5.47;0.80;;;9.70;99.90;;;;;;6737953;88;20192;-75
2022/01/03 04:30:52;;;;;;;7.45;1.10;;;9.60;99.90;;;;;;6739891;88;20310;-75
2022/01/03 04:40:52;;;;;;;8.27;1.10;;;9.70;99.90;;;;;;6740746;88;20197;-74
2022/01/03 04:50:53;;;;;;;4.90;1.12;;;9.40;99.90;;;;;;6743474;88;20235;-75
2022/01/03 05:00:53;;;;;;;7.20;1.02;;;9.40;99.90;;;;;;6741173;88;20231;-74
2022/01/03 05:10:54;;;;;;;3.85;0.75;;;9.50;99.90;;;;;;6740901;88;20235;-74
2022/01/03 05:20:56;;;;;;;6.07;1.08;;;9.40;99.90;;;;;;6752328;88;20185;-77
2022/01/03 05:30:57;;;;;;;8.20;1.45;;;9.50;99.90;;;;;;6746938;88;20728;-75
2022/01/03 05:40:58;;;;;;;10.27;1.17;;;9.10;99.90;;;;;;6745132;88;20193;-75
2022/01/03 05:50:58;;;;;;;13.50;1.25;;;9.10;99.90;;;;;;6742256;88;20943;-75
2022/01/03 06:01:01;;;;;;;7.75;0.90;;;9.20;99.90;;;;;;6737354;88;20289;-74
2022/01/03 06:11:02;;;;;;;9.90;1.35;;;9.40;99.90;;;;;;6742548;88;20296;-74
2022/01/03 06:21:02;;;;;;;8.02;1.12;;;9.80;99.90;;;;;;6741692;88;20198;-75
2022/01/03 06:31:03;;;;;;;10.27;1.42;;;9.70;99.90;;;;;;6737231;88;20207;-74
2022/01/03 06:41:03;;;;;;;9.07;1.25;;;9.70;99.90;;;;;;6743398;88;20186;-75
2022/01/03 06:51:04;;;;;;;8.43;1.20;;;10.00;99.90;;;;;;6736379;88;20192;-74
2022/01/03 07:01:05;;;;;;;9.35;1.25;;;9.80;99.90;;;;;;6736155;88;20707;-75
2022/01/03 07:11:06;;;;;;;11.23;1.25;;;9.90;99.90;;;;;;6735681;88;20189;-75
2022/01/03 07:21:07;;;;;;;8.07;1.30;;;9.50;99.90;;;;;;6734773;88;20733;-76
2022/01/03 07:31:07;;;;;;;6.72;1.23;;;9.40;99.90;;;;;;6735871;88;20228;-73
2022/01/03 07:41:09;;;;;;;13.20;1.50;;;9.30;99.90;;;;;;6736077;88;20212;-75
2022/01/03 07:51:10;;;;;;;7.18;1.30;;;9.10;99.90;;;;;;6737973;88;20265;-76
2022/01/03 08:01:11;;;;;;;8.43;1.70;;;9.30;99.90;;;;;;6738888;88;20197;-74
2022/01/03 08:11:12;;;;;;;8.13;1.20;;;9.20;99.90;;;;;;6736177;88;20198;-76
2022/01/03 08:21:14;;;;;;;7.40;1.23;;;9.20;99.90;;;;;;6740453;88;20223;-75
2022/01/03 08:31:14;;;;;;;7.47;1.30;;;9.40;99.90;;;;;;6743944;88;20209;-76
2022/01/03 08:41:15;;;;;;;10.15;1.55;;;9.40;99.90;;;;;;6742627;88;20210;-76
2022/01/03 08:51:15;;;;;;;12.10;1.35;;;9.60;99.90;;;;;;6741189;88;20236;-74
2022/01/03 09:01:16;;;;;;;10.82;1.50;;;9.70;99.90;;;;;;6739223;88;20331;-76
2022/01/03 09:11:16;;;;;;;9.40;1.58;;;10.30;99.90;;;;;;6744681;88;20364;-76
2022/01/03 09:21:17;;;;;;;8.23;1.27;;;10.70;99.90;;;;;;6737311;88;20231;-76
2022/01/03 09:31:30;;;;;;;11.60;1.30;;;10.80;99.90;;;;;;6741456;88;20299;-75
2022/01/03 09:41:32;;;;;;;9.43;1.60;;;10.70;99.90;;;;;;6737921;88;20306;-76
2022/01/03 09:51:33;;;;;;;7.60;1.33;;;10.80;99.90;;;;;;6733454;88;20360;-75
2022/01/03 10:01:34;;;;;;;8.38;1.42;;;11.00;99.90;;;;;;6734477;88;20231;-75
2022/01/03 10:11:35;;;;;;;9.18;1.30;;;11.30;99.90;;;;;;6729853;88;20177;-76
2022/01/03 10:21:49;;;;;;;7.87;1.35;;;11.80;99.90;;;;;;6734780;88;20221;-76
2022/01/03 10:31:52;;;;;;;12.18;1.35;;;11.90;99.90;;;;;;6735399;88;20651;-75
2022/01/03 10:42:16;;;;;;;7.93;1.83;;;11.70;99.90;;;;;;6732238;88;20680;-76
2022/01/03 10:52:20;;;;;;;8.93;1.37;;;11.60;99.90;;;;;;6734730;88;20676;-75
2022/01/03 11:02:20;;;;;;;8.18;1.20;;;11.30;99.90;;;;;;6735744;88;20690;-76
2022/01/03 11:12:21;;;;;;;4.90;1.00;;;11.20;99.90;;;;;;6740543;87;20233;-76
2022/01/03 11:22:52;;;;;;;6.43;0.80;;;10.90;99.90;;;;;;6740015;88;20192;-75
2022/01/03 11:32:55;;;;;;;6.95;1.00;;;10.40;99.90;;;;;;6735655;88;20827;-75
2022/01/03 11:42:55;;;;;;;2.15;0.70;;;10.00;99.90;;;;;;6737015;88;20214;-75
2022/01/03 11:52:56;;;;;;;4.12;0.70;;;9.70;99.90;;;;;;6739102;88;20184;-76
2022/01/03 12:13:21;;;;;;;7.25;0.80;;;10.00;99.90;;;;;;6737747;88;20669;-75
2022/01/03 12:23:42;;;;;;;5.00;0.82;;;10.00;99.90;;;;;;6734690;88;20221;-76
2022/01/03 12:34:18;;;;;;;8.43;1.02;;;10.20;99.90;;;;;;6735881;88;20193;-76
2022/01/03 12:44:45;;;;;;;6.90;1.02;;;10.20;99.90;;;;;;6741541;88;20209;-76
2022/01/03 12:54:45;;;;;;;;;;;10.40;99.90;;;;;;6743520;88;20197;-75
2022/01/03 13:04:47;;;;;;;4.95;0.75;;;10.30;99.90;;;;;;6748146;88;20085;-76
2022/01/03 13:14:47;;;;;;;3.72;0.60;;;10.10;99.90;;;;;;6748888;87;20277;-75
2022/01/03 13:24:49;;;;;;;4.50;0.50;;;10.20;99.90;;;;;;6738637;88;20274;-75
2022/01/03 13:34:50;;;;;;;2.47;0.50;;;10.30;99.90;;;;;;6739915;88;20501;-76
2022/01/03 13:54:54;;;;;;;5.93;0.90;;;10.60;99.90;;;;;;6737040;88;20251;-76
2022/01/03 14:04:56;;;;;;;5.43;0.80;;;10.60;99.90;;;;;;6731187;88;20208;-76
2022/01/03 14:14:59;;;;;;;4.57;0.90;;;10.70;99.90;;;;;;6740060;88;20189;-75
2022/01/03 14:25:08;;;;;;;7.07;1.15;;;10.80;99.90;;;;;;6739978;88;20173;-75
2022/01/03 14:35:09;;;;;;;5.93;1.12;;;10.70;99.90;;;;;;6738471;88;20313;-75
2022/01/03 14:45:14;;;;;;;8.18;1.05;;;10.60;99.90;;;;;;6735330;88;20227;-76
2022/01/03 14:55:28;;;;;;;9.60;2.60;;;10.50;99.90;;;;;;6735564;88;20223;-77
2022/01/03 15:05:29;;;;;;;3.83;1.10;;;10.40;99.90;;;;;;6739244;88;20212;-75
2022/01/03 15:15:31;;;;;;;3.95;1.08;;;10.10;99.90;;;;;;6738086;88;20216;-77
2022/01/03 15:25:32;;;;;;;4.60;1.05;;;9.70;99.90;;;;;;6740028;88;20204;-77
2022/01/03 15:35:32;;;;;;;6.03;1.17;;;9.80;99.90;;;;;;6738492;88;20320;-76
2022/01/03 15:45:33;;;;;;;7.60;1.33;;;9.70;99.90;;;;;;6736653;88;20515;-76
2022/01/03 15:55:34;;;;;;;5.23;1.10;;;9.80;99.90;;;;;;6738745;88;20201;-76
2022/01/03 16:05:34;;;;;;;4.82;1.08;;;9.70;99.90;;;;;;6739008;88;21646;-77
2022/01/03 16:15:35;;;;;;;5.03;1.17;;;9.80;99.90;;;;;;6734071;88;20271;-76
2022/01/03 16:25:35;;;;;;;4.70;1.20;;;9.90;99.90;;;;;;6734559;88;20943;-75
2022/01/03 16:35:37;;;;;;;4.00;0.82;;;9.90;99.90;;;;;;6736246;88;20636;-77
2022/01/03 16:45:37;;;;;;;3.85;0.98;;;9.70;99.90;;;;;;6731860;88;20692;-76
2022/01/03 16:55:38;;;;;;;4.55;0.80;;;9.70;99.90;;;;;;6735820;88;20203;-75
2022/01/03 17:05:38;;;;;;;4.12;0.73;;;9.90;99.90;;;;;;6736313;88;20205;-78
2022/01/03 17:15:39;;;;;;;4.18;0.90;;;9.90;99.90;;;;;;6742203;87;20278;-76
2022/01/03 17:25:41;;;;;;;4.50;1.02;;;10.00;99.90;;;;;;6736626;88;20205;-75
2022/01/03 17:35:42;;;;;;;4.45;1.08;;;9.70;99.90;;;;;;6742416;88;20198;-76
2022/01/03 17:45:42;;;;;;;4.55;1.40;;;9.60;99.90;;;;;;6740029;88;20197;-77
2022/01/03 17:55:45;;;;;;;3.45;0.90;;;9.30;99.90;;;;;;6734899;88;20184;-75
2022/01/03 18:05:46;;;;;;;7.50;1.37;;;9.50;99.90;;;;;;6735405;88;20275;-76
2022/01/03 18:15:47;;;;;;;6.67;1.57;;;9.20;99.90;;;;;;6737711;88;20185;-77
2022/01/03 18:25:47;;;;;;;4.12;1.35;;;9.10;99.90;;;;;;6739137;88;21015;-77
2022/01/03 18:35:48;;;;;;;10.10;2.60;;;9.30;99.90;;;;;;6739699;88;20199;-77
2022/01/03 18:45:48;;;;;;;6.90;2.80;;;9.30;99.90;;;;;;6737693;88;20214;-74
2022/01/03 18:55:49;;;;;;;6.32;3.40;;;9.30;99.90;;;;;;6738061;88;20986;-75
2022/01/03 19:05:50;;;;;;;7.85;3.85;;;9.10;99.90;;;;;;6736746;88;20177;-76
2022/01/03 19:15:50;;;;;;;9.55;3.53;;;9.00;99.90;;;;;;6739871;88;20255;-76
2022/01/03 19:25:51;;;;;;;9.60;3.60;;;9.10;99.90;;;;;;6736656;88;20220;-75
2022/01/03 19:46:14;;;;;;;10.68;5.10;;;9.00;99.90;;;;;;6732946;88;20207;-74
2022/01/03 19:56:15;;;;;;;11.82;5.25;;;9.00;99.90;;;;;;6734953;88;20199;-76
2022/01/03 20:06:16;;;;;;;11.32;4.60;;;9.00;99.90;;;;;;6734852;88;20280;-77
2022/01/03 20:16:16;;;;;;;8.57;4.23;;;9.10;99.90;;;;;;6744727;88;20295;-76
2022/01/03 20:26:17;;;;;;;8.80;4.57;;;9.10;99.90;;;;;;6736029;88;20567;-74
2022/01/03 20:36:18;;;;;;;5.57;2.00;;;9.10;99.90;;;;;;6734646;88;20505;-75
2022/01/03 20:46:19;;;;;;;4.43;1.48;;;9.30;99.90;;;;;;6736979;88;20242;-75
2022/01/03 20:56:20;;;;;;;4.45;1.45;;;9.30;99.90;;;;;;6735900;88;20209;-74
2022/01/03 21:06:20;;;;;;;3.25;1.27;;;9.40;99.90;;;;;;6730974;88;20188;-75
2022/01/03 21:16:21;;;;;;;2.78;0.90;;;9.30;99.90;;;;;;6733049;88;20241;-75
2022/01/03 21:26:22;;;;;;;3.05;0.90;;;9.20;99.90;;;;;;6735672;88;20241;-75
2022/01/03 21:36:22;;;;;;;1.37;0.50;;;9.10;99.90;;;;;;6737611;88;20208;-75
2022/01/03 21:46:23;;;;;;;0.90;0.35;;;9.00;99.90;;;;;;6736430;88;20185;-75
2022/01/03 21:56:23;;;;;;;2.62;0.60;;;8.80;99.90;;;;;;6737860;88;20324;-76
2022/01/03 22:06:24;;;;;;;2.92;0.82;;;8.70;99.90;;;;;;6747755;88;20255;-75
2022/01/03 22:16:24;;;;;;;1.15;0.50;;;8.60;99.90;;;;;;6736814;88;20184;-74
2022/01/03 22:26:25;;;;;;;3.78;0.60;;;8.60;99.90;;;;;;6734012;88;20670;-75
2022/01/03 22:36:26;;;;;;;1.83;0.40;;;8.40;99.90;;;;;;6734748;88;20635;-75
2022/01/03 22:46:26;;;;;;;2.90;0.50;;;8.30;99.90;;;;;;6734237;88;20252;-76
2022/01/03 22:56:27;;;;;;;1.25;0.32;;;8.30;99.90;;;;;;6731175;88;20213;-75
2022/01/03 23:06:28;;;;;;;0.80;0.30;;;8.20;99.90;;;;;;6735884;88;20218;-76
2022/01/03 23:16:29;;;;;;;2.53;0.43;;;8.20;99.90;;;;;;6745196;88;20208;-76
2022/01/03 23:26:30;;;;;;;1.95;0.30;;;8.20;99.90;;;;;;6734347;88;20215;-75
2022/01/03 23:36:34;;;;;;;0.88;0.30;;;8.10;99.90;;;;;;6734076;88;20492;-75
2022/01/03 23:46:35;;;;;;;1.98;0.40;;;8.00;99.90;;;;;;6731286;88;20184;-75
2022/01/03 23:56:35;;;;;;;2.40;0.50;;;8.20;99.90;;;;;;6734108;88;20231;-76
